Time;durP1;ratioP1;P1;durP2;ratioP2;P2;SDS_P1;SDS_P2;PMS_P1;PMS_P2;Temp;Humidity;BMP_temperature;BMP_pressure;BME280_temperature;BME280_humidity;BME280_pressure;Samples;Min_cycle;Max_cycle;Signal;HPM_P1;HPM_P2
2022/10/21 00:01:13;;;;;;;;;0.33;0.33;;;;;24.53;48.92;100442.69;5077550;27;45350;-74
2022/10/21 00:03:39;;;;;;;;;0.33;0.33;;;;;24.60;49.03;100443.47;5076578;27;45505;-74
2022/10/21 00:06:05;;;;;;;;;1.00;1.00;;;;;24.59;48.98;100439.16;5077274;27;45378;-73
2022/10/21 00:08:30;;;;;;;;;1.33;1.00;;;;;24.60;49.04;100440.81;5077140;27;45352;-74
2022/10/21 00:10:59;;;;;;;;;2.00;1.00;;;;;24.58;48.69;100442.88;5077269;27;45326;-73
2022/10/21 00:13:26;;;;;;;;;1.00;1.00;;;;;24.60;49.27;100438.16;5077413;27;45296;-73
2022/10/21 00:15:59;;;;;;;;;1.33;1.33;;;;;24.61;49.01;100441.63;5077339;27;47245;-73
2022/10/21 00:18:25;;;;;;;;;1.33;1.00;;;;;24.60;49.06;100435.50;5077154;27;45391;-73
2022/10/21 00:20:50;;;;;;;;;1.00;1.00;;;;;24.56;48.72;100426.31;5077060;27;45422;-73
2022/10/21 00:23:16;;;;;;;;;4.00;1.00;;;;;24.59;48.90;100441.81;5076921;27;45320;-73
2022/10/21 00:25:41;;;;;;;;;1.00;1.00;;;;;24.47;48.83;100424.88;5077333;27;45616;-73
2022/10/21 00:28:06;;;;;;;;;1.67;1.67;;;;;24.59;48.98;100417.91;5076754;27;51259;-72
2022/10/21 00:30:31;;;;;;;;;1.00;1.00;;;;;24.59;49.03;100425.06;5077307;27;45448;-74
2022/10/21 00:32:57;;;;;;;;;1.00;1.00;;;;;24.59;48.76;100425.88;5067058;27;45562;-74
2022/10/21 00:35:22;;;;;;;;;1.00;1.00;;;;;24.59;48.95;100412.56;5072569;27;47003;-73
2022/10/21 00:37:47;;;;;;;;;0.00;0.00;;;;;24.60;48.91;100405.41;5075711;27;45424;-74
2022/10/21 00:40:13;;;;;;;;;0.33;0.33;;;;;24.59;49.13;100399.28;5076765;27;46269;-73
2022/10/21 00:42:40;;;;;;;;;0.67;0.67;;;;;24.60;49.08;100381.47;5076962;27;45406;-73
2022/10/21 00:45:05;;;;;;;;;1.33;1.33;;;;;24.60;49.05;100376.97;5076903;27;46069;-71
2022/10/21 00:47:42;;;;;;;;;1.00;1.00;;;;;24.57;48.85;100360.63;5076441;27;45458;-73
2022/10/21 00:50:19;;;;;;;;;1.00;1.00;;;;;24.59;48.91;100383.31;5076897;27;45400;-74
2022/10/21 00:52:45;;;;;;;;;0.67;0.00;;;;;24.60;48.98;100387.63;5075976;28;45449;-73
2022/10/21 00:55:10;;;;;;;;;2.67;1.00;;;;;24.61;48.93;100378.63;5076616;27;45274;-73
2022/10/21 00:57:36;;;;;;;;;0.00;0.00;;;;;24.62;48.81;100369.59;5076577;27;45332;-74
2022/10/21 01:00:04;;;;;;;;;1.00;1.00;;;;;24.62;49.22;100369.59;5076557;27;45247;-73
2022/10/21 01:02:29;;;;;;;;;1.00;1.00;;;;;24.57;49.11;100358.78;5076396;27;45513;-73
2022/10/21 01:04:58;;;;;;;;;1.33;1.00;;;;;24.54;48.67;100348.56;5076479;27;45422;-73
2022/10/21 01:07:24;;;;;;;;;1.00;0.00;;;;;24.63;49.01;100363.28;5076245;27;45288;-73
2022/10/21 01:09:50;;;;;;;;;2.00;1.00;;;;;24.63;48.91;100339.34;5076360;27;45295;-73
2022/10/21 01:12:41;;;;;;;;;1.00;1.00;;;;;24.63;49.00;100352.63;5076494;27;45442;-73
2022/10/21 01:15:20;;;;;;;;;0.67;0.33;;;;;24.65;48.90;100348.94;5060988;28;47387;-72
2022/10/21 01:17:51;;;;;;;;;2.33;1.00;;;;;24.65;48.69;100343.59;5073894;27;45273;-73
2022/10/21 01:20:50;;;;;;;;;1.00;1.00;;;;;24.65;48.78;100352.41;5073988;28;45670;-73
2022/10/21 01:23:27;;;;;;;;;0.33;0.33;;;;;24.65;48.93;100351.59;5073981;27;45421;-73
2022/10/21 01:25:55;;;;;;;;;0.67;0.67;;;;;24.65;48.85;100348.94;5073816;28;46984;-74
2022/10/21 01:28:59;;;;;;;;;1.33;1.33;;;;;24.65;48.94;100336.44;5073501;27;45540;-73
2022/10/21 01:31:40;;;;;;;;;2.00;0.00;;;;;24.66;48.89;100335.44;5062924;27;45454;-73
2022/10/21 01:34:28;;;;;;;;;0.33;0.33;;;;;24.65;48.82;100344.44;5073591;28;45272;-74
2022/10/21 01:36:59;;;;;;;;;1.00;1.00;;;;;24.63;48.88;100326.03;5073052;27;46396;-74
2022/10/21 01:39:36;;;;;;;;;1.00;1.00;;;;;24.64;48.84;100316.22;5073382;27;45400;-73
2022/10/21 01:42:19;;;;;;;;;2.00;1.67;;;;;24.64;48.90;100316.22;5073285;27;45356;-74
2022/10/21 01:45:23;;;;;;;;;1.00;1.00;;;;;24.63;48.83;100311.91;5073765;28;45346;-73
2022/10/21 01:47:53;;;;;;;;;0.67;0.67;;;;;24.62;48.92;100334.22;5058514;28;47062;-73
2022/10/21 01:50:24;;;;;;;;;0.00;0.00;;;;;24.61;49.03;100336.06;5072143;28;45461;-73
2022/10/21 01:52:56;;;;;;;;;0.33;0.00;;;;;24.62;48.86;100337.69;5064598;27;45418;-73
2022/10/21 01:55:26;;;;;;;;;1.00;1.00;;;;;24.58;48.97;100314.38;5075815;27;45288;-74
2022/10/21 01:58:06;;;;;;;;;1.33;1.00;;;;;24.62;48.96;100324.38;5091039;27;46287;-73
2022/10/21 02:00:34;;;;;;;;;2.00;1.00;;;;;24.61;48.96;100312.13;5075723;27;45365;-73
2022/10/21 02:03:03;;;;;;;;;1.67;1.00;;;;;24.60;49.03;100326.44;5074424;27;45429;-73
2022/10/21 02:05:31;;;;;;;;;1.00;1.00;;;;;24.61;49.17;100316.63;5075118;28;45346;-73
2022/10/21 02:07:56;;;;;;;;;1.00;1.00;;;;;24.61;48.95;100312.13;5075130;27;45384;-74
2022/10/21 02:10:27;;;;;;;;;2.33;1.00;;;;;24.61;48.87;100313.97;5075781;27;45367;-73
2022/10/21 02:12:57;;;;;;;;;1.00;1.00;;;;;24.61;49.09;100314.81;5075559;27;45302;-73
2022/10/21 02:15:25;;;;;;;;;0.33;0.33;;;;;24.54;49.09;100303.34;5075618;27;45492;-74
2022/10/21 02:18:03;;;;;;;;;0.67;0.67;;;;;24.61;48.90;100328.09;5075322;28;45289;-71
2022/10/21 02:20:33;;;;;;;;;0.33;0.33;;;;;24.60;49.13;100323.78;5074840;27;45475;-73
2022/10/21 02:22:59;;;;;;;;;0.50;0.50;;;;;24.53;48.78;100312.38;5075560;27;45335;-74
2022/10/21 02:25:30;;;;;;;;;0.00;0.00;;;;;24.51;48.99;100304.59;5075547;27;45397;-73
2022/10/21 02:27:56;;;;;;;;;1.00;1.00;;;;;24.59;48.89;100316.03;5075041;27;46248;-74
2022/10/21 02:30:21;;;;;;;;;2.00;1.00;;;;;24.60;49.09;100305.19;5075359;27;45357;-73
2022/10/21 02:33:02;;;;;;;;;0.33;0.33;;;;;24.59;48.92;100300.88;5066709;28;45404;-73
2022/10/21 02:35:54;;;;;;;;;0.00;0.00;;;;;24.60;48.75;100299.84;5071707;28;45296;-73
2022/10/21 02:38:27;;;;;;;;;0.00;0.00;;;;;24.61;48.96;100300.69;5074862;27;45402;-74
2022/10/21 02:41:00;;;;;;;;;1.67;0.67;;;;;24.60;49.00;100297.19;5068215;27;45406;-73
2022/10/21 02:43:34;;;;;;;;;1.00;1.00;;;;;24.60;48.87;100307.84;5064408;28;45473;-73
2022/10/21 02:46:05;;;;;;;;;0.00;0.00;;;;;24.61;48.72;100303.34;5074919;27;45502;-73
2022/10/21 02:48:35;;;;;;;;;1.67;1.00;;;;;24.61;48.88;100285.53;5074474;28;45265;-71
2022/10/21 02:51:03;;;;;;;;;0.33;0.33;;;;;24.60;49.11;100283.06;5074934;27;45464;-73
2022/10/21 02:53:28;;;;;;;;;0.67;0.67;;;;;24.62;49.03;100278.34;5074777;28;45355;-71
2022/10/21 02:55:54;;;;;;;;;1.00;1.00;;;;;24.62;48.77;100275.69;5090459;27;45542;-73
2022/10/21 02:58:19;;;;;;;;;0.00;0.00;;;;;24.63;48.78;100282.66;5074823;28;46999;-74
2022/10/21 03:00:44;;;;;;;;;1.00;0.00;;;;;24.63;48.55;100280.81;5076004;28;51923;-74
2022/10/21 03:03:09;;;;;;;;;1.00;1.00;;;;;24.63;48.44;100282.66;5078258;27;45379;-73
2022/10/21 03:05:35;;;;;;;;;1.00;1.00;;;;;24.63;48.92;100272.03;5078064;28;49428;-73
2022/10/21 03:08:00;;;;;;;;;0.33;0.33;;;;;24.58;48.72;100269.19;5078052;28;53170;-74
2022/10/21 03:10:25;;;;;;;;;1.00;1.00;;;;;24.62;48.80;100284.50;5078367;28;45664;-73
2022/10/21 03:12:51;;;;;;;;;1.00;1.00;;;;;24.63;48.91;100302.09;5078264;27;45279;-73
2022/10/21 03:15:16;;;;;;;;;1.00;1.00;;;;;24.58;48.69;100290.47;5077943;27;45294;-75
2022/10/21 03:17:42;;;;;;;;;1.67;1.67;;;;;24.63;48.93;100277.34;5077873;27;45984;-74
2022/10/21 03:20:07;;;;;;;;;0.67;0.67;;;;;24.62;48.78;100281.84;5077849;28;45501;-74
2022/10/21 03:22:33;;;;;;;;;1.00;0.67;;;;;24.62;49.04;100281.84;5078194;28;45414;-73
2022/10/21 03:24:58;;;;;;;;;2.00;1.00;;;;;24.61;48.83;100277.56;5078060;28;45245;-73
2022/10/21 03:27:23;;;;;;;;;0.00;0.00;;;;;24.62;48.83;100278.34;5077817;27;45950;-73
2022/10/21 03:29:49;;;;;;;;;1.67;0.67;;;;;24.55;48.87;100266.94;5078048;28;45428;-73
2022/10/21 03:32:14;;;;;;;;;1.00;1.00;;;;;24.61;48.82;100274.09;5062774;28;45455;-73
2022/10/21 03:34:39;;;;;;;;;0.00;0.00;;;;;24.61;48.75;100280.22;5068121;27;45546;-74
2022/10/21 03:37:05;;;;;;;;;1.67;1.67;;;;;24.61;48.89;100287.38;5077502;27;46201;-73
2022/10/21 03:39:30;;;;;;;;;0.00;0.00;;;;;24.61;48.90;100293.53;5077283;27;51232;-73
2022/10/21 03:41:55;;;;;;;;;1.00;1.00;;;;;24.61;48.87;100293.53;5077793;27;46804;-73
2022/10/21 03:44:20;;;;;;;;;0.00;0.00;;;;;24.62;49.01;100289.00;5077686;27;45338;-73
2022/10/21 03:46:46;;;;;;;;;1.00;0.00;;;;;24.61;48.88;100290.84;5077172;27;50405;-74
2022/10/21 03:49:11;;;;;;;;;0.67;0.00;;;;;24.58;48.89;100285.13;5077410;27;46580;-73
2022/10/21 03:51:36;;;;;;;;;1.00;0.00;;;;;24.60;48.81;100283.91;5077797;27;45370;-73
2022/10/21 03:54:02;;;;;;;;;0.67;0.67;;;;;24.60;48.75;100283.06;5077483;27;45358;-73
2022/10/21 03:56:27;;;;;;;;;0.33;0.33;;;;;24.59;48.91;100271.63;5077626;27;46112;-73
2022/10/21 03:58:52;;;;;;;;;3.00;1.00;;;;;24.59;48.83;100273.47;5077562;27;45288;-73
2022/10/21 04:01:18;;;;;;;;;1.00;1.00;;;;;24.60;48.91;100273.25;5077168;27;45389;-73
2022/10/21 04:03:43;;;;;;;;;2.33;1.00;;;;;24.59;48.88;100263.63;5077850;27;45446;-72
2022/10/21 04:06:08;;;;;;;;;2.00;1.00;;;;;24.60;48.87;100273.25;5077044;27;46040;-73
2022/10/21 04:08:34;;;;;;;;;1.00;0.00;;;;;24.59;48.74;100276.94;5077486;27;45382;-72
2022/10/21 04:10:59;;;;;;;;;0.00;0.00;;;;;24.53;48.70;100264.50;5077221;27;45528;-73
2022/10/21 04:13:25;;;;;;;;;0.67;0.67;;;;;24.61;48.98;100266.94;5076397;27;45283;-73
2022/10/21 04:15:50;;;;;;;;;0.00;0.00;;;;;24.62;49.23;100270.38;5076901;27;46136;-73
2022/10/21 04:18:16;;;;;;;;;2.33;1.00;;;;;24.62;48.83;100270.38;5077032;27;45402;-73
2022/10/21 04:20:41;;;;;;;;;0.00;0.00;;;;;24.63;48.63;100286.13;5077114;27;45530;-73
2022/10/21 04:23:06;;;;;;;;;2.67;0.67;;;;;24.63;48.87;100295.97;5093084;27;45393;-73
2022/10/21 04:25:32;;;;;;;;;0.33;0.33;;;;;24.62;48.80;100295.13;5076907;27;47006;-73
2022/10/21 04:27:57;;;;;;;;;0.00;0.00;;;;;24.58;48.84;100296.59;5076752;27;45414;-74
2022/10/21 04:30:22;;;;;;;;;0.00;0.00;;;;;24.63;48.71;100302.09;5076881;27;45334;-73
2022/10/21 04:32:49;;;;;;;;;0.00;0.00;;;;;24.50;48.53;100273.72;5068159;27;45457;-73
2022/10/21 04:35:16;;;;;;;;;1.00;1.00;;;;;24.60;48.66;100296.38;5071697;27;47116;-73
2022/10/21 04:37:42;;;;;;;;;0.67;0.67;;;;;24.59;48.79;100289.44;5109621;27;45525;-73
2022/10/21 04:40:08;;;;;;;;;1.00;1.00;;;;;24.55;48.98;100299.66;5076877;27;45557;-73
2022/10/21 04:42:33;;;;;;;;;0.67;0.33;;;;;24.63;48.80;100322.56;5076898;27;45478;-73
2022/10/21 04:44:59;;;;;;;;;1.33;1.33;;;;;24.63;48.57;100319.91;5076673;27;45919;-73
2022/10/21 04:47:24;;;;;;;;;0.00;0.00;;;;;24.62;48.75;100307.59;5076733;27;45405;-73
2022/10/21 04:49:49;;;;;;;;;0.33;0.33;;;;;24.62;48.65;100303.13;5076884;27;45367;-72
2022/10/21 04:52:14;;;;;;;;;0.00;0.00;;;;;24.62;48.66;100315.59;5076691;27;45496;-73
2022/10/21 04:54:40;;;;;;;;;1.00;1.00;;;;;24.62;48.80;100320.91;5076524;27;47371;-73
2022/10/21 04:57:05;;;;;;;;;1.00;1.00;;;;;24.61;48.81;100317.47;5076716;27;45308;-73
2022/10/21 04:59:30;;;;;;;;;2.33;1.00;;;;;24.57;48.84;100310.91;5076177;27;45849;-73
2022/10/21 05:01:56;;;;;;;;;0.00;0.00;;;;;24.60;49.00;100326.44;5076647;27;45296;-73
2022/10/21 05:04:21;;;;;;;;;1.00;1.00;;;;;24.61;48.75;100303.34;5076044;27;49882;-73
2022/10/21 05:06:46;;;;;;;;;0.67;0.67;;;;;24.61;48.63;100295.34;5076682;27;45446;-73
2022/10/21 05:09:12;;;;;;;;;1.00;1.00;;;;;24.60;49.01;100313.16;5076389;27;45366;-73
2022/10/21 05:11:37;;;;;;;;;0.00;0.00;;;;;24.60;49.02;100321.13;5062499;27;45445;-73
2022/10/21 05:14:02;;;;;;;;;2.00;0.67;;;;;24.60;48.73;100318.47;5075367;27;57510;-72
2022/10/21 05:16:28;;;;;;;;;1.67;0.00;;;;;24.61;49.01;100316.63;5076368;27;45457;-73
2022/10/21 05:18:53;;;;;;;;;1.00;1.00;;;;;24.59;48.94;100319.50;5076582;27;45446;-73
2022/10/21 05:21:18;;;;;;;;;1.00;1.00;;;;;24.60;48.97;100333.59;5075926;27;46786;-73
2022/10/21 05:23:44;;;;;;;;;1.00;1.00;;;;;24.60;49.38;100338.94;5076026;27;52529;-72
2022/10/21 05:26:09;;;;;;;;;1.33;1.00;;;;;24.60;48.89;100342.41;5076175;27;45280;-73
2022/10/21 05:28:35;;;;;;;;;1.00;1.00;;;;;24.60;48.79;100331.78;5075976;27;45369;-73
2022/10/21 05:31:00;;;;;;;;;1.00;1.00;;;;;24.60;48.81;100320.31;5076502;27;45365;-73
2022/10/21 05:33:26;;;;;;;;;3.00;0.00;;;;;24.61;48.94;100341.41;5061830;27;45388;-73
2022/10/21 05:36:03;;;;;;;;;1.00;1.00;;;;;24.61;48.67;100341.41;5075779;27;45394;-73
2022/10/21 05:38:30;;;;;;;;;1.00;1.00;;;;;24.61;48.63;100341.41;5076225;27;45467;-73
2022/10/21 05:40:56;;;;;;;;;1.00;1.00;;;;;24.54;48.58;100327.28;5076008;27;45294;-73
2022/10/21 05:43:21;;;;;;;;;0.67;0.00;;;;;24.62;48.70;100340.34;5075511;27;45530;-73
2022/10/21 05:45:47;;;;;;;;;0.67;0.67;;;;;24.64;48.80;100340.16;5075899;27;45377;-73
2022/10/21 05:48:12;;;;;;;;;1.00;1.00;;;;;24.63;48.79;100346.50;5075995;27;45351;-73
2022/10/21 05:50:37;;;;;;;;;1.00;1.00;;;;;24.65;48.64;100343.59;5075584;27;45495;-73
2022/10/21 05:53:03;;;;;;;;;1.00;0.00;;;;;24.63;48.78;100347.31;5075593;27;46052;-73
2022/10/21 05:55:28;;;;;;;;;0.00;0.00;;;;;24.57;48.56;100340.16;5075732;27;45466;-73
2022/10/21 05:57:53;;;;;;;;;2.00;0.00;;;;;24.63;48.79;100349.16;5075365;27;45416;-73
2022/10/21 06:00:19;;;;;;;;;1.00;1.00;;;;;24.63;48.92;100351.81;5075515;27;51650;-72
2022/10/21 06:02:44;;;;;;;;;1.00;1.00;;;;;24.63;48.95;100357.94;5075445;27;45337;-73
2022/10/21 06:05:10;;;;;;;;;0.00;0.00;;;;;24.62;48.91;100351.00;5075738;27;45381;-72
2022/10/21 06:07:35;;;;;;;;;0.00;0.00;;;;;24.62;48.74;100353.66;5061518;27;45399;-73
2022/10/21 06:10:01;;;;;;;;;1.00;1.00;;;;;24.59;48.76;100343.41;5075444;27;45359;-73
2022/10/21 06:12:26;;;;;;;;;0.00;0.00;;;;;24.62;48.93;100342.19;5075378;27;45347;-73
2022/10/21 06:14:52;;;;;;;;;1.00;1.00;;;;;24.61;48.81;100344.06;5075163;27;45366;-73
2022/10/21 06:17:17;;;;;;;;;0.00;0.00;;;;;24.61;48.85;100349.38;5075796;27;45391;-73
2022/10/21 06:19:43;;;;;;;;;1.67;1.00;;;;;24.60;48.71;100349.56;5075252;27;45378;-72
2022/10/21 06:22:08;;;;;;;;;0.00;0.00;;;;;24.60;49.01;100366.34;5075093;27;49701;-73
2022/10/21 06:24:34;;;;;;;;;1.00;1.00;;;;;24.52;48.88;100356.75;5075379;27;45377;-72
2022/10/21 06:26:59;;;;;;;;;2.33;2.33;;;;;24.61;49.09;100359.19;5075066;27;45354;-73
2022/10/21 06:29:26;;;;;;;;;1.00;1.00;;;;;24.61;48.90;100364.50;5075181;27;52644;-73
2022/10/21 06:31:51;;;;;;;;;2.00;2.00;;;;;24.60;48.81;100361.03;5074198;27;46378;-72
2022/10/21 06:34:17;;;;;;;;;1.67;1.00;;;;;24.61;48.71;100353.88;5061775;28;45333;-72
2022/10/21 06:36:42;;;;;;;;;2.00;1.00;;;;;24.60;48.89;100355.72;5078071;27;45396;-72
2022/10/21 06:39:07;;;;;;;;;1.00;1.00;;;;;24.60;48.95;100371.66;5078557;27;45347;-72
2022/10/21 06:41:33;;;;;;;;;1.00;1.00;;;;;24.62;48.81;100374.09;5076966;27;46868;-72
2022/10/21 06:43:59;;;;;;;;;3.33;2.00;;;;;24.57;49.29;100368.59;5078576;27;45364;-72
2022/10/21 06:46:25;;;;;;;;;2.00;1.00;;;;;24.56;48.82;100364.31;5078993;27;45603;-72
2022/10/21 06:48:50;;;;;;;;;1.00;1.00;;;;;24.61;49.00;100375.97;5078497;27;45539;-72
2022/10/21 06:51:18;;;;;;;;;2.00;0.33;;;;;24.60;48.93;100369.00;5078360;27;45496;-71
2022/10/21 06:53:45;;;;;;;;;0.00;0.00;;;;;24.63;49.06;100373.91;5078866;27;45394;-72
2022/10/21 06:56:16;;;;;;;;;0.00;0.00;;;;;24.65;48.94;100383.50;5076913;27;45596;-73
2022/10/21 06:58:46;;;;;;;;;1.00;1.00;;;;;24.66;49.17;100385.97;5078355;27;45447;-72
2022/10/21 07:01:17;;;;;;;;;0.00;0.00;;;;;24.67;49.14;100398.22;5078129;27;46356;-74
2022/10/21 07:03:42;;;;;;;;;2.00;2.00;;;;;24.68;49.18;100397.22;5076260;27;45430;-72
2022/10/21 07:06:08;;;;;;;;;1.00;1.00;;;;;24.70;49.13;100399.66;5077535;27;45282;-73
2022/10/21 07:08:34;;;;;;;;;1.00;1.00;;;;;24.60;48.76;100384.13;5077465;27;45375;-73
2022/10/21 07:11:00;;;;;;;;;0.00;0.00;;;;;24.75;49.16;100399.84;5077709;27;45545;-73
2022/10/21 07:13:25;;;;;;;;;0.00;0.00;;;;;24.78;49.00;100410.06;5076865;27;45585;-72
2022/10/21 07:16:02;;;;;;;;;0.33;0.33;;;;;24.82;48.94;100411.31;5078148;28;45398;-72
2022/10/21 07:18:28;;;;;;;;;0.67;0.67;;;;;24.83;49.29;100418.25;5073943;27;45358;-72
2022/10/21 07:20:54;;;;;;;;;2.00;0.00;;;;;24.94;48.74;100438.06;5077801;27;46994;-72
2022/10/21 07:23:19;;;;;;;;;0.00;0.00;;;;;24.96;48.80;100419.22;5077107;27;45489;-72
2022/10/21 07:25:45;;;;;;;;;0.00;0.00;;;;;25.07;49.01;100431.91;5078243;27;45338;-73
2022/10/21 07:28:10;;;;;;;;;1.00;1.00;;;;;25.13;48.82;100440.06;5110799;27;45703;-72
2022/10/21 07:30:43;;;;;;;;;1.67;1.00;;;;;25.22;48.51;100440.63;5077694;27;46430;-73
2022/10/21 07:33:10;;;;;;;;;1.00;1.00;;;;;25.25;48.18;100437.56;5066171;27;45453;-73
2022/10/21 07:35:36;;;;;;;;;0.00;0.00;;;;;25.34;48.16;100446.94;5075551;27;45410;-72
2022/10/21 07:38:02;;;;;;;;;2.00;1.00;;;;;25.42;48.21;100445.06;5077161;27;45497;-73
2022/10/21 07:40:27;;;;;;;;;1.00;1.00;;;;;25.48;47.90;100446.84;5077349;27;45469;-72
2022/10/21 07:42:54;;;;;;;;;2.33;1.00;;;;;25.54;48.13;100451.34;5077123;27;45514;-73
2022/10/21 07:45:19;;;;;;;;;0.00;0.00;;;;;25.58;47.88;100457.06;5077827;27;45332;-72
2022/10/21 07:47:45;;;;;;;;;0.67;0.67;;;;;25.56;47.71;100451.94;5076471;27;45390;-73
2022/10/21 07:50:11;;;;;;;;;0.00;0.00;;;;;25.56;47.71;100459.13;5077485;27;46086;-73
2022/10/21 07:52:44;;;;;;;;;3.00;0.00;;;;;25.56;47.58;100457.28;5077141;27;45304;-73
2022/10/21 07:55:12;;;;;;;;;0.00;0.00;;;;;25.56;47.80;100461.78;5077509;27;45475;-73
2022/10/21 07:57:38;;;;;;;;;0.00;0.00;;;;;25.54;47.57;100467.31;5077462;27;45456;-72
2022/10/21 08:00:04;;;;;;;;;0.00;0.00;;;;;25.49;47.90;100456.50;5077478;27;45287;-73
2022/10/21 08:02:30;;;;;;;;;2.00;1.00;;;;;25.51;47.49;100473.06;5077339;27;45295;-73
2022/10/21 08:04:55;;;;;;;;;0.67;0.67;;;;;25.48;47.93;100469.00;5077152;27;45377;-73
2022/10/21 08:07:20;;;;;;;;;2.00;0.00;;;;;25.47;47.69;100472.69;5076976;27;45360;-73
2022/10/21 08:09:45;;;;;;;;;0.67;0.00;;;;;25.50;48.25;100471.47;5077224;27;45394;-73
2022/10/21 08:12:11;;;;;;;;;0.67;0.67;;;;;25.52;47.77;100470.22;5076993;27;49670;-73
2022/10/21 08:14:38;;;;;;;;;1.00;1.00;;;;;25.52;47.75;100464.88;5077121;27;45416;-72
2022/10/21 08:17:03;;;;;;;;;0.00;0.00;;;;;25.52;47.77;100458.75;5077472;27;45434;-73
2022/10/21 08:19:29;;;;;;;;;1.00;1.00;;;;;25.50;47.61;100461.59;5076677;27;45950;-72
2022/10/21 08:21:55;;;;;;;;;0.00;0.00;;;;;25.46;48.04;100447.09;5076806;27;45331;-71
2022/10/21 08:24:22;;;;;;;;;0.00;0.00;;;;;25.60;47.97;100471.00;5077299;27;45390;-72
2022/10/21 08:26:48;;;;;;;;;1.00;1.00;;;;;25.63;47.66;100458.03;5076577;27;45435;-72
2022/10/21 08:29:13;;;;;;;;;1.67;1.00;;;;;25.71;47.66;100464.16;5065694;28;45364;-72
2022/10/21 08:31:39;;;;;;;;;1.00;1.00;;;;;25.74;47.96;100463.75;5073970;27;46735;-72
2022/10/21 08:34:04;;;;;;;;;2.33;0.33;;;;;25.50;47.42;100418.97;5062643;27;45483;-72
2022/10/21 08:36:29;;;;;;;;;1.00;1.00;;;;;25.79;47.77;100473.78;5076589;27;45280;-72
2022/10/21 08:38:55;;;;;;;;;0.00;0.00;;;;;25.79;47.68;100479.13;5076447;27;51293;-72
2022/10/21 08:41:29;;;;;;;;;1.33;1.33;;;;;25.78;47.72;100485.47;5076858;27;45442;-73
2022/10/21 08:44:03;;;;;;;;;0.00;0.00;;;;;25.79;47.57;100485.22;5076904;27;45340;-73
2022/10/21 08:46:34;;;;;;;;;3.00;1.00;;;;;25.80;47.69;100489.53;5076814;27;45331;-72
2022/10/21 08:49:22;;;;;;;;;2.00;0.00;;;;;25.81;47.60;100487.69;5076656;27;45463;-72
2022/10/21 08:51:54;;;;;;;;;1.00;1.00;;;;;25.79;47.31;100493.22;5076389;27;45355;-72
2022/10/21 08:54:26;;;;;;;;;1.00;1.00;;;;;25.78;47.76;100498.78;5076667;27;45434;-72
2022/10/21 08:56:57;;;;;;;;;2.00;1.67;;;;;25.78;47.30;100496.13;5076598;27;45526;-72
2022/10/21 08:59:24;;;;;;;;;0.67;0.33;;;;;25.76;47.76;100499.00;5075346;27;46486;-72
2022/10/21 09:02:24;;;;;;;;;0.00;0.00;;;;;25.75;47.54;100500.03;5076270;27;45371;-73
2022/10/21 09:05:28;;;;;;;;;1.00;1.00;;;;;25.79;47.48;100503.09;5073749;28;45490;-72
2022/10/21 09:08:11;;;;;;;;;0.33;0.33;;;;;25.79;47.47;100495.91;5063183;28;45518;-72
2022/10/21 09:10:58;;;;;;;;;1.67;0.00;;;;;25.81;47.98;100495.69;5071994;28;45459;-72
2022/10/21 09:13:41;;;;;;;;;1.00;0.00;;;;;25.82;47.76;100495.47;5073909;28;45465;-72
2022/10/21 09:16:24;;;;;;;;;1.00;1.00;;;;;25.84;47.76;100497.94;5073892;27;45466;-72
2022/10/21 09:19:01;;;;;;;;;1.67;1.00;;;;;25.83;47.74;100493.63;5073609;28;45583;-72
2022/10/21 09:21:51;;;;;;;;;0.67;0.67;;;;;25.84;47.48;100495.28;5073131;27;46351;-72
2022/10/21 09:24:25;;;;;;;;;0.00;0.00;;;;;25.85;47.40;100497.72;5074009;28;45470;-72
2022/10/21 09:26:53;;;;;;;;;0.00;0.00;;;;;25.87;48.11;100502.03;5073829;28;45371;-72
2022/10/21 09:29:26;;;;;;;;;1.00;0.00;;;;;25.87;47.63;100500.16;5073980;28;45485;-72
2022/10/21 09:31:55;;;;;;;;;0.00;0.00;;;;;25.87;47.42;100492.16;5073606;27;46139;-72
2022/10/21 09:34:39;;;;;;;;;1.00;1.00;;;;;25.81;47.63;100480.53;5073032;28;45634;-75
2022/10/21 09:37:11;;;;;;;;;1.67;1.67;;;;;25.87;47.85;100494.03;5073487;27;45465;-74
2022/10/21 09:39:44;;;;;;;;;1.00;1.00;;;;;25.85;48.06;100488.91;5073469;27;45426;-75
2022/10/21 09:42:11;;;;;;;;;0.67;0.33;;;;;25.85;47.56;100494.22;5072747;28;45421;-75
2022/10/21 09:44:37;;;;;;;;;1.00;1.00;;;;;25.85;48.19;100488.91;5075740;27;45328;-75
2022/10/21 09:47:22;;;;;;;;;1.33;1.00;;;;;25.85;48.18;100484.38;5075917;27;45338;-75
2022/10/21 09:49:51;;;;;;;;;0.67;0.67;;;;;25.86;48.21;100482.53;5075355;27;45407;-74
2022/10/21 09:52:19;;;;;;;;;0.00;0.00;;;;;25.78;47.85;100456.16;5075422;27;46402;-73
2022/10/21 09:54:46;;;;;;;;;0.33;0.00;;;;;25.85;46.40;100475.56;5075437;27;45370;-73
2022/10/21 09:57:22;;;;;;;;;1.00;1.00;;;;;25.82;46.11;100489.31;5075727;27;45339;-73
2022/10/21 09:59:57;;;;;;;;;1.00;1.00;;;;;25.73;45.20;100486.94;5076020;27;45322;-74
2022/10/21 10:02:44;;;;;;;;;2.00;1.00;;;;;25.60;45.54;100476.31;5075328;27;45404;-72
2022/10/21 10:05:41;;;;;;;;;1.67;1.67;;;;;25.49;44.99;100475.13;5064012;28;45306;-73
2022/10/21 10:08:24;;;;;;;;;3.33;1.33;;;;;25.39;45.23;100473.75;5075047;27;45423;-71
2022/10/21 10:10:49;;;;;;;;;1.00;1.00;;;;;25.33;45.45;100481.75;5077117;27;45438;-76
2022/10/21 10:13:19;;;;;;;;;2.67;2.67;;;;;25.27;44.85;100478.09;5078416;27;52582;-74
2022/10/21 10:15:45;;;;;;;;;0.67;0.67;;;;;25.22;45.27;100475.25;5079139;27;45434;-73
2022/10/21 10:18:23;;;;;;;;;4.67;1.00;;;;;25.16;45.34;100472.41;5078203;27;45349;-73
2022/10/21 10:21:24;;;;;;;;;2.67;0.00;;;;;25.13;45.17;100467.53;5079042;27;45537;-74
2022/10/21 10:23:53;;;;;;;;;1.00;1.00;;;;;25.09;45.24;100474.28;5064835;27;47283;-73
2022/10/21 10:26:36;;;;;;;;;4.67;0.00;;;;;25.07;44.78;100473.69;5076329;27;45496;-73
2022/10/21 10:29:28;;;;;;;;;1.00;0.00;;;;;25.04;44.85;100471.44;5076318;27;45711;-73
2022/10/21 10:31:56;;;;;;;;;3.67;1.00;;;;;25.02;44.81;100476.97;5071945;27;45433;-74
2022/10/21 10:34:30;;;;;;;;;3.00;2.00;;;;;24.99;44.57;100476.53;5076218;27;45336;-73
2022/10/21 10:37:07;;;;;;;;;2.33;1.00;;;;;24.93;44.55;100473.69;5076286;27;45265;-75
2022/10/21 10:39:37;;;;;;;;;1.67;1.00;;;;;24.96;44.73;100475.94;5076087;27;45466;-74
2022/10/21 10:42:03;;;;;;;;;1.33;1.00;;;;;24.96;44.53;100483.09;5075724;27;45533;-73
2022/10/21 10:44:37;;;;;;;;;3.00;2.00;;;;;24.91;44.83;100482.91;5076217;27;45489;-74
2022/10/21 10:47:05;;;;;;;;;3.00;1.00;;;;;24.94;44.67;100482.47;5076082;27;45374;-73
2022/10/21 10:49:41;;;;;;;;;2.67;0.00;;;;;24.92;44.49;100496.00;5075569;27;45500;-73
2022/10/21 10:52:19;;;;;;;;;0.00;0.00;;;;;24.89;44.29;100496.41;5076262;27;45869;-74
2022/10/21 10:54:45;;;;;;;;;3.00;1.33;;;;;24.83;44.55;100483.94;5076009;27;47233;-73
2022/10/21 10:57:16;;;;;;;;;2.33;0.00;;;;;24.84;44.18;100497.06;5071417;27;45720;-76
2022/10/21 10:59:54;;;;;;;;;2.00;1.00;;;;;24.81;44.46;100492.13;5078677;27;45260;-74
2022/10/21 11:02:42;;;;;;;;;0.00;0.00;;;;;24.82;44.61;100488.47;5077941;27;45491;-74
2022/10/21 11:05:17;;;;;;;;;2.33;0.00;;;;;24.74;44.59;100470.06;5082197;27;46968;-75
2022/10/21 11:07:51;;;;;;;;;1.67;1.00;;;;;24.84;44.54;100493.56;5078202;27;45664;-74
2022/10/21 11:10:28;;;;;;;;;4.00;2.00;;;;;24.81;44.70;100468.19;5078375;27;45477;-74
2022/10/21 11:12:54;;;;;;;;;7.33;1.00;;;;;24.76;44.61;100469.84;5063921;28;45421;-74
2022/10/21 11:15:28;;;;;;;;;1.00;1.00;;;;;24.81;44.18;100476.19;5077440;28;46044;-74
2022/10/21 11:18:06;;;;;;;;;1.00;1.00;;;;;24.84;44.17;100489.06;5077940;28;45408;-73
2022/10/21 11:20:45;;;;;;;;;1.00;1.00;;;;;24.84;44.58;100491.72;5078052;27;45279;-73
2022/10/21 11:23:32;;;;;;;;;1.33;1.33;;;;;24.85;44.60;100490.69;5064515;28;45479;-74
2022/10/21 11:26:16;;;;;;;;;1.67;1.00;;;;;24.87;44.23;100484.34;5077355;28;45370;-73
2022/10/21 11:29:18;;;;;;;;;0.00;0.00;;;;;24.88;44.03;100478.00;5077790;28;45484;-73
2022/10/21 11:32:10;;;;;;;;;2.67;1.00;;;;;24.87;43.50;100455.91;5077725;28;45457;-73
2022/10/21 11:35:26;;;;;;;;;2.67;1.67;;;;;24.87;43.61;100471.88;5069848;27;45299;-74
2022/10/21 11:38:00;;;;;;;;;3.00;0.00;;;;;24.88;43.97;100454.06;5053920;28;46363;-74